createdAt,value
2019-01-04T00:00:43.485Z,100.00
2019-01-04T00:03:15.251Z,100.00
2019-01-04T00:05:46.638Z,100.00
2019-01-04T00:08:18.399Z,100.00
2019-01-04T00:10:49.790Z,100.00
2019-01-04T00:13:21.375Z,100.00
2019-01-04T00:15:52.999Z,100.00
2019-01-04T00:18:24.532Z,100.00
2019-01-04T00:20:57.673Z,100.00
2019-01-04T00:23:29.276Z,100.00
2019-01-04T00:26:00.713Z,100.00
2019-01-04T00:28:32.256Z,100.00
2019-01-04T00:31:03.726Z,100.00
2019-01-04T00:33:35.355Z,100.00
2019-01-04T00:36:06.877Z,100.00
2019-01-04T00:38:38.534Z,100.00
2019-01-04T00:41:10.201Z,100.00
2019-01-04T00:43:41.751Z,100.00
2019-01-04T00:46:13.876Z,100.00
2019-01-04T00:48:46.616Z,100.00
2019-01-04T00:51:17.992Z,100.00
2019-01-04T00:53:49.454Z,100.00
2019-01-04T00:56:52.603Z,100.00
2019-01-04T01:00:02.936Z,100.00
2019-01-04T01:03:27.994Z,100.00
2019-01-04T01:06:37.191Z,100.00
2019-01-04T01:09:35.856Z,100.00
2019-01-04T09:10:12.757Z,100.00
2019-01-04T09:12:44.303Z,100.00
2019-01-04T09:15:16.293Z,100.00
2019-01-04T09:17:47.892Z,100.00
2019-01-04T09:20:19.571Z,100.00
2019-01-04T09:22:57.856Z,99.83
2019-01-04T09:25:29.876Z,100.00
2019-01-04T09:28:04.565Z,100.00
2019-01-04T09:30:36.294Z,100.00
2019-01-04T09:33:08.825Z,99.74
2019-01-04T09:35:40.338Z,99.89
2019-01-04T09:38:12.272Z,97.63
2019-01-04T09:40:43.923Z,98.52
2019-01-04T09:43:15.630Z,95.21
2019-01-04T09:45:47.749Z,93.18
2019-01-04T09:48:19.175Z,91.58
2019-01-04T09:50:50.957Z,93.19
2019-01-04T09:53:22.179Z,86.93
2019-01-04T09:55:53.585Z,89.29
2019-01-04T09:58:25.104Z,87.18
2019-01-04T10:00:56.512Z,88.51
2019-01-04T10:03:28.001Z,87.18
2019-01-04T10:05:59.582Z,86.94
2019-01-04T10:08:31.117Z,88.07
2019-01-04T10:11:02.643Z,88.36
2019-01-04T10:13:34.334Z,87.86
2019-01-04T10:16:05.748Z,87.66
2019-01-04T10:18:37.142Z,87.08
2019-01-04T10:21:08.931Z,86.24
2019-01-04T10:23:41.245Z,88.62
2019-01-04T10:26:12.720Z,87.78
2019-01-04T10:28:45.619Z,86.00
2019-01-04T10:31:17.008Z,84.37
2019-01-04T10:33:48.419Z,83.56
2019-01-04T10:36:19.949Z,84.26
2019-01-04T10:38:51.372Z,85.71
2019-01-04T10:41:22.997Z,83.84
2019-01-04T10:43:54.594Z,85.14
2019-01-04T10:46:26.171Z,83.56
2019-01-04T10:48:57.672Z,80.92
2019-01-04T10:51:30.660Z,79.75
2019-01-04T10:54:02.161Z,79.86
2019-01-04T10:56:34.301Z,80.10
2019-01-04T10:59:05.797Z,79.46
2019-01-04T11:01:37.253Z,79.74
2019-01-04T11:04:08.599Z,81.03
2019-01-04T11:06:40.090Z,81.58
2019-01-04T11:09:12.139Z,83.15
2019-01-04T11:11:43.666Z,83.04
2019-01-04T11:14:15.107Z,81.81
2019-01-04T11:16:46.594Z,79.64
2019-01-04T11:19:17.892Z,80.47
2019-01-04T11:21:49.406Z,81.63
2019-01-04T11:25:10.368Z,82.53
2019-01-04T11:28:12.454Z,80.95
2019-01-04T11:30:59.198Z,83.51
2019-01-04T11:33:46.467Z,85.46
2019-01-04T11:36:42.307Z,86.95
2019-01-04T11:39:59.853Z,86.48
2019-01-04T11:42:46.035Z,87.35
2019-01-04T11:45:57.713Z,87.82
2019-01-04T11:48:58.892Z,86.52
2019-01-04T11:51:40.088Z,86.82
2019-01-04T11:54:18.278Z,87.56
2019-01-04T11:56:49.718Z,87.54
2019-01-04T11:59:21.175Z,88.44
2019-01-04T12:01:52.568Z,89.78
2019-01-04T12:04:24.121Z,89.70
2019-01-04T12:06:55.642Z,89.09
2019-01-04T12:09:26.966Z,88.40
2019-01-04T12:11:58.351Z,86.45
2019-01-04T12:14:29.849Z,87.58
2019-01-04T12:17:01.247Z,90.01
2019-01-04T12:19:32.544Z,90.14
2019-01-04T12:22:04.019Z,89.22
2019-01-04T12:24:35.507Z,91.24
2019-01-04T12:27:07.123Z,92.39
2019-01-04T12:29:38.581Z,91.08
2019-01-04T12:32:09.983Z,90.93
2019-01-04T12:34:41.423Z,89.97
2019-01-04T12:37:12.755Z,90.63
2019-01-04T12:39:44.233Z,90.38
2019-01-04T12:42:15.756Z,90.16
2019-01-04T12:44:48.238Z,90.72
2019-01-04T12:47:19.759Z,90.95
2019-01-04T12:49:51.098Z,89.62
2019-01-04T12:52:22.415Z,89.06
2019-01-04T12:54:56.303Z,89.33
2019-01-04T12:57:27.227Z,90.73
2019-01-04T12:59:59.249Z,90.14
2019-01-04T13:02:30.655Z,89.28
2019-01-04T13:05:03.379Z,91.10
2019-01-04T13:07:39.073Z,90.68
2019-01-04T13:10:10.505Z,88.86
2019-01-04T13:12:41.923Z,90.10
2019-01-04T13:15:13.385Z,90.82
2019-01-04T13:17:44.642Z,91.07
2019-01-04T13:20:16.140Z,89.81
2019-01-04T13:22:47.570Z,90.40
2019-01-04T13:25:19.170Z,91.18
2019-01-04T13:27:50.569Z,90.50
2019-01-04T13:30:22.188Z,89.17
2019-01-04T13:32:53.814Z,89.29
2019-01-04T13:35:25.271Z,89.46
2019-01-04T13:37:56.744Z,89.97
2019-01-04T13:40:28.156Z,89.78
2019-01-04T13:42:59.603Z,90.07
2019-01-04T13:45:30.947Z,91.45
2019-01-04T13:48:02.534Z,89.83
2019-01-04T13:50:34.048Z,90.27
2019-01-04T13:53:05.558Z,89.76
2019-01-04T13:55:36.909Z,90.20
2019-01-04T13:58:08.397Z,88.29
2019-01-04T14:00:39.832Z,90.53
2019-01-04T14:03:11.178Z,89.36
2019-01-04T14:05:42.682Z,90.27
2019-01-04T14:08:14.221Z,91.21
2019-01-04T14:10:45.755Z,90.46
2019-01-04T14:13:17.347Z,91.27
2019-01-04T14:15:48.857Z,90.62
2019-01-04T14:18:20.348Z,91.54
2019-01-04T14:20:51.955Z,92.24
2019-01-04T14:23:28.787Z,93.48
2019-01-04T14:25:56.658Z,92.53
2019-01-04T14:28:28.224Z,92.97
2019-01-04T14:30:59.548Z,94.11
2019-01-04T14:33:30.925Z,94.13
2019-01-04T14:36:02.304Z,94.66
2019-01-04T14:38:33.584Z,94.72
2019-01-04T14:41:05.044Z,96.01
2019-01-04T14:43:36.600Z,94.53
2019-01-04T14:46:08.067Z,96.17
2019-01-04T14:48:39.520Z,95.00
2019-01-04T14:51:11.030Z,95.62
2019-01-04T14:53:42.491Z,96.27
2019-01-04T14:56:14.638Z,96.16
2019-01-04T14:58:46.220Z,96.02
2019-01-04T15:01:17.795Z,96.28
2019-01-04T15:03:49.282Z,96.26
2019-01-04T15:06:20.880Z,96.73
2019-01-04T15:08:52.479Z,97.72
2019-01-04T15:11:24.070Z,97.74
2019-01-04T15:13:55.583Z,98.62
2019-01-04T15:16:26.974Z,98.94
2019-01-04T15:18:58.353Z,99.15
2019-01-04T15:21:30.973Z,98.76
2019-01-04T15:24:02.524Z,99.36
2019-01-04T15:26:33.940Z,99.77
2019-01-04T15:29:05.319Z,99.37
2019-01-04T15:31:36.721Z,99.52
2019-01-04T15:34:08.345Z,99.76
2019-01-04T15:36:39.773Z,99.84
2019-01-04T15:39:11.286Z,99.61
2019-01-04T15:41:43.003Z,100.00
2019-01-04T15:44:14.545Z,100.00
2019-01-04T15:46:46.009Z,100.00
2019-01-04T15:49:17.537Z,100.00
2019-01-04T15:51:49.183Z,100.00
2019-01-04T15:54:20.732Z,100.00
2019-01-04T15:56:53.666Z,100.00
2019-01-04T15:59:25.395Z,100.00
2019-01-04T16:02:42.107Z,99.70
2019-01-04T16:05:13.618Z,98.95
2019-01-04T16:07:45.127Z,98.38
2019-01-04T16:10:16.634Z,98.49
2019-01-04T16:12:48.108Z,98.55
2019-01-04T16:15:19.564Z,98.24
2019-01-04T16:17:50.909Z,98.13
2019-01-04T16:20:22.348Z,98.46
2019-01-04T16:22:53.866Z,98.06
2019-01-04T16:25:25.353Z,97.51
2019-01-04T16:27:56.829Z,97.53
2019-01-04T16:30:28.458Z,98.17
2019-01-04T16:32:59.931Z,97.37
2019-01-04T16:35:31.478Z,99.02
2019-01-04T16:38:02.893Z,99.85
2019-01-04T16:40:34.263Z,100.00
2019-01-04T16:43:05.702Z,100.00
2019-01-04T16:45:45.328Z,100.00
2019-01-04T16:48:38.870Z,100.00
2019-01-04T16:51:38.960Z,100.00
2019-01-04T16:54:10.510Z,100.00
2019-01-04T16:56:42.045Z,100.00
2019-01-04T16:59:13.581Z,100.00
2019-01-04T17:01:45.840Z,100.00
2019-01-04T17:04:19.250Z,100.00
2019-01-04T17:06:50.782Z,100.00
2019-01-04T17:09:22.419Z,100.00
2019-01-04T17:11:53.918Z,100.00
2019-01-04T17:14:25.534Z,100.00
2019-01-04T17:16:57.239Z,100.00
2019-01-04T17:19:28.712Z,100.00
2019-01-04T17:22:00.156Z,100.00
2019-01-04T17:24:31.611Z,100.00
2019-01-04T17:27:04.142Z,100.00
2019-01-04T17:30:29.025Z,100.00
2019-01-04T17:33:46.069Z,100.00
2019-01-04T17:36:37.980Z,100.00
2019-01-04T17:39:59.091Z,100.00
2019-01-04T17:42:35.028Z,100.00
2019-01-04T17:45:06.905Z,100.00
2019-01-04T17:47:38.426Z,100.00
2019-01-04T17:50:10.393Z,100.00
2019-01-04T17:52:42.970Z,100.00
2019-01-04T17:55:15.533Z,100.00
2019-01-04T17:57:47.110Z,100.00
2019-01-04T18:00:19.964Z,100.00
2019-01-04T18:02:51.613Z,100.00
2019-01-04T18:05:23.485Z,100.00
2019-01-04T18:07:55.233Z,100.00
2019-01-04T18:10:27.327Z,100.00
2019-01-04T18:12:58.968Z,100.00
2019-01-04T18:15:30.583Z,100.00
2019-01-04T18:18:03.496Z,100.00
2019-01-04T18:20:34.949Z,100.00
2019-01-04T18:23:06.488Z,100.00
2019-01-04T18:25:37.946Z,100.00
2019-01-04T18:28:09.855Z,100.00
2019-01-04T18:30:41.371Z,100.00
2019-01-04T18:33:12.956Z,100.00
2019-01-04T18:35:44.510Z,100.00
2019-01-04T18:38:16.085Z,100.00
2019-01-04T18:40:47.539Z,100.00
2019-01-04T18:43:19.170Z,100.00
2019-01-04T18:45:51.335Z,100.00
2019-01-04T18:48:22.946Z,100.00
2019-01-04T18:50:54.876Z,100.00
2019-01-04T18:53:27.015Z,100.00
2019-01-04T18:55:58.515Z,100.00
2019-01-04T18:58:30.104Z,100.00
2019-01-04T19:01:01.488Z,100.00
2019-01-04T19:03:33.974Z,100.00
2019-01-04T19:06:05.570Z,100.00
2019-01-04T19:08:37.036Z,100.00
2019-01-04T19:11:09.380Z,100.00
2019-01-04T19:13:40.749Z,100.00
2019-01-04T19:16:12.266Z,100.00
2019-01-04T19:18:43.601Z,100.00
2019-01-04T19:21:15.056Z,100.00
2019-01-04T19:23:46.675Z,100.00
2019-01-04T19:26:18.306Z,100.00
2019-01-04T19:28:49.851Z,100.00
2019-01-04T19:31:21.409Z,100.00
2019-01-04T19:33:52.843Z,100.00
2019-01-04T19:36:32.785Z,100.00
2019-01-04T19:39:12.779Z,100.00
2019-01-04T19:41:48.010Z,100.00
2019-01-04T19:44:28.752Z,100.00
2019-01-04T19:47:02.060Z,100.00
2019-01-04T19:49:38.542Z,100.00
2019-01-04T19:52:16.742Z,100.00
2019-01-04T19:54:52.304Z,100.00
2019-01-04T19:57:31.486Z,100.00
2019-01-04T20:00:09.454Z,100.00
2019-01-04T20:02:48.019Z,100.00
2019-01-04T20:06:03.484Z,100.00
2019-01-04T20:09:46.122Z,100.00
2019-01-04T20:13:42.660Z,100.00
2019-01-04T20:16:45.793Z,100.00
2019-01-04T20:19:35.391Z,100.00
2019-01-04T20:22:24.261Z,100.00
2019-01-04T20:25:13.063Z,100.00
2019-01-04T20:28:21.364Z,100.00
2019-01-04T20:31:14.724Z,100.00
2019-01-04T20:34:07.746Z,100.00
2019-01-04T20:36:57.123Z,100.00
2019-01-04T20:39:46.094Z,100.00
2019-01-04T20:42:54.726Z,100.00
2019-01-04T20:45:42.897Z,100.00
2019-01-04T20:48:31.906Z,100.00
2019-01-04T20:51:22.019Z,100.00
2019-01-04T20:54:16.384Z,100.00
2019-01-04T20:57:16.027Z,100.00
2019-01-04T21:00:09.236Z,100.00
2019-01-04T21:03:08.834Z,100.00
2019-01-04T21:05:58.935Z,100.00
2019-01-04T21:08:59.073Z,100.00
2019-01-04T21:11:43.577Z,100.00
2019-01-04T21:14:40.066Z,100.00
2019-01-04T21:17:25.738Z,100.00
2019-01-04T21:20:28.254Z,100.00
2019-01-04T21:23:22.417Z,100.00
2019-01-04T21:26:12.584Z,100.00
2019-01-04T21:29:21.432Z,100.00
2019-01-04T21:32:10.526Z,100.00
2019-01-04T21:35:09.668Z,100.00
2019-01-04T21:37:58.823Z,100.00
2019-01-04T21:40:55.344Z,100.00
2019-01-04T21:43:59.548Z,100.00
2019-01-04T21:46:48.307Z,100.00
2019-01-04T21:49:37.118Z,100.00
2019-01-04T21:52:27.256Z,100.00
2019-01-04T21:55:17.477Z,100.00
2019-01-04T21:58:10.812Z,100.00
2019-01-04T22:01:09.919Z,100.00
2019-01-04T22:04:00.148Z,100.00
2019-01-04T22:07:03.685Z,100.00
2019-01-04T22:10:05.939Z,100.00
2019-01-04T22:12:58.612Z,100.00
2019-01-04T22:16:04.033Z,100.00
2019-01-04T22:18:52.834Z,100.00
2019-01-04T22:21:55.166Z,100.00
2019-01-04T22:24:51.190Z,100.00
2019-01-04T22:27:36.775Z,100.00
2019-01-04T22:30:26.612Z,100.00
2019-01-04T22:33:15.436Z,100.00
2019-01-04T22:35:59.086Z,100.00
2019-01-04T22:38:52.254Z,100.00
2019-01-04T22:41:39.039Z,100.00
2019-01-04T22:44:29.268Z,100.00
2019-01-04T22:47:17.860Z,100.00
2019-01-04T22:50:26.523Z,100.00
2019-01-04T22:53:16.874Z,100.00
2019-01-04T22:56:07.114Z,100.00
2019-01-04T22:58:56.090Z,100.00
2019-01-04T23:01:46.490Z,100.00
2019-01-04T23:04:39.336Z,100.00
2019-01-04T23:07:41.528Z,100.00
2019-01-04T23:10:30.248Z,100.00
2019-01-04T23:13:17.572Z,100.00
2019-01-04T23:16:11.286Z,100.00
2019-01-04T23:18:59.910Z,100.00
2019-01-04T23:22:36.041Z,100.00
2019-01-04T23:25:29.225Z,100.00
2019-01-04T23:28:18.156Z,100.00
2019-01-04T23:31:07.006Z,100.00
2019-01-04T23:34:12.604Z,100.00
2019-01-04T23:37:14.968Z,100.00
2019-01-04T23:40:05.260Z,100.00
2019-01-04T23:42:54.500Z,100.00
2019-01-04T23:45:54.932Z,100.00
2019-01-04T23:48:45.553Z,100.00
2019-01-04T23:51:27.816Z,100.00
2019-01-04T23:54:07.528Z,100.00
2019-01-04T23:57:03.640Z,100.00
2019-01-04T23:59:53.899Z,100.00
